North Branford, CT

4:58 PM EST on February 09, 2016 (GMT -0500)
Branford | | Change Station
CLOSE
Current Station
Personal Weather Station
Location: Branford, CT
Elevation: 125 ft
Nearby Weather Stations
Active Advisory: Winter Weather Advisory Active Notice: Local Storm Report

Elev 125 ft 41.30 °N, 72.79 °W | Updated 15 seconds ago

Partly Cloudy
Partly Cloudy
30.1 °F
Feels Like 30 °F
N
0.0
Wind Variable Wind from NNE
Gusts 0.0 mph

Today
High -- | Low -- °F
--% Chance of Precip.
Yesterday
High -- | Low -- °F
Precip. -- in
Pressure 29.59 in
Visibility 10.0 miles
Clouds Mostly Cloudy 25000 ft
Windchill 30 °F
Dew Point 22 °F
Humidity 71%
Rainfall 0.04 in
Snow Depth Not available.
6:54 AM 5:16 PM
New Moon, 2% visible
METAR KHVN 092153Z 00000KT 10SM BKN250 M01/M07 A2959 RMK AO2 SLP018 T10061067
Pressure 29.59 in
Visibility 10.0 miles
Clouds Mostly Cloudy 25000 ft
Windchill 30 °F
Dew Point 22 °F
Humidity 71%
Rainfall 0.04 in
Snow Depth Not available.
6:54 AM 5:16 PM
New Moon, 2% visible
METAR KHVN 092153Z 00000KT 10SM BKN250 M01/M07 A2959 RMK AO2 SLP018 T10061067

10-Day Weather Forecast

Almanac

Astronomy

Feb. 09, 2016 Rise Set
Actual Time
Civil Twilight
Nautical Twilight
Astronomical Twilight
Moon
Length of Visible Light
Length of Day
Tomorrow will be .
, % of the Moon is Illuminated

Today's Extremes

State Highs State Lows

Community

WunderPhotos

Upload Photos

1,891,710 photos uploaded!

WunderBlog® & News

Nearby

Air Quality

  Air Quality AQ Index Pollutant
Not available.

Snow Depth

Station Depth Elevation

Earthquake Activity

City Distance Mag. Time & Date
Minimum magnitude displayed is 2.5.

Coastal Water Temperatures

Place Temperature

Stations

Nearby Weather Stations

Station Location Temp. Windchill Dew Point Humidity Wind Precip. Elev Updated Type
                   

Watches & Warnings

Winter Weather Advisory
Issued: 3:17 PM EST Feb. 9, 2016 – National Weather Service

... Winter Weather Advisory remains in effect until noon EST
Wednesday...

* locations... northeast New Jersey along and north of Interstate
80... Rockland and Westchester counties in southeast New York...
and coastal Connecticut.

* Hazard types... snow.

* Accumulations... snow accumulation of 2 to 4 inches.

* Temperatures... around 30.

* Visibilities... as low as one half mile at times.

Precautionary/preparedness actions...

A Winter Weather Advisory for snow means that periods of snow
will cause travel difficulties. Be prepared for slippery roads
and limited visibilities... and use caution while driving.



Mps